createdAt,value
2022-10-06T00:01:30.993Z,101170.61
2022-10-06T00:03:58.680Z,101174.86
2022-10-06T00:06:26.304Z,101172.91
2022-10-06T00:08:53.966Z,101172.63
2022-10-06T00:11:22.493Z,101179.08
2022-10-06T00:13:50.193Z,101176.97
2022-10-06T00:16:21.856Z,101176.70
2022-10-06T00:18:49.996Z,101179.17
2022-10-06T00:21:17.942Z,101177.50
2022-10-06T00:23:45.848Z,101175.34
2022-10-06T00:26:17.560Z,101175.98
2022-10-06T00:28:49.160Z,101172.33
2022-10-06T00:31:19.724Z,101173.10
2022-10-06T00:33:49.759Z,101170.92
2022-10-06T00:36:17.455Z,101171.36
2022-10-06T00:38:45.917Z,101169.29
2022-10-06T00:41:14.709Z,101167.30
2022-10-06T00:43:57.110Z,101166.01
2022-10-06T00:46:25.129Z,101175.72
2022-10-06T00:48:55.909Z,101173.73
2022-10-06T00:51:23.922Z,101170.55
2022-10-06T00:53:51.742Z,101174.67
2022-10-06T00:56:19.623Z,101174.00
2022-10-06T00:58:49.023Z,101182.23
2022-10-06T01:01:17.025Z,101182.63
2022-10-06T01:03:55.189Z,101184.39
2022-10-06T01:06:23.101Z,101181.25
2022-10-06T01:08:51.380Z,101182.31
2022-10-06T01:11:19.108Z,101181.23
2022-10-06T01:13:46.980Z,101186.78
2022-10-06T01:16:23.399Z,101186.62
2022-10-06T01:18:53.350Z,101191.73
2022-10-06T01:21:42.018Z,101193.92
2022-10-06T01:24:09.834Z,101194.23
2022-10-06T01:26:40.505Z,101196.23
2022-10-06T01:29:08.542Z,101196.08
2022-10-06T01:31:36.535Z,101196.55
2022-10-06T01:34:05.207Z,101202.11
2022-10-06T01:36:32.864Z,101200.83
2022-10-06T01:39:00.556Z,101200.67
2022-10-06T01:41:28.388Z,101201.85
2022-10-06T01:43:56.218Z,101202.23
2022-10-06T01:46:23.964Z,101204.91
2022-10-06T01:48:51.670Z,101207.36
2022-10-06T01:51:19.698Z,101205.21
2022-10-06T01:53:47.409Z,101205.88
2022-10-06T01:56:15.518Z,101202.00
2022-10-06T01:58:43.568Z,101206.46
2022-10-06T02:01:12.020Z,101207.02
2022-10-06T02:03:40.149Z,101203.71
2022-10-06T02:06:09.682Z,101203.86
2022-10-06T02:08:38.087Z,101209.34
2022-10-06T02:11:08.070Z,101209.86
2022-10-06T02:13:37.617Z,101207.39
2022-10-06T02:16:09.361Z,101213.66
2022-10-06T02:18:37.362Z,101219.43
2022-10-06T02:21:05.480Z,101219.58
2022-10-06T02:23:33.786Z,101222.67
2022-10-06T02:26:03.360Z,101226.62
2022-10-06T02:28:32.104Z,101230.27
2022-10-06T02:31:02.656Z,101233.53
2022-10-06T02:33:30.731Z,101233.09
2022-10-06T02:35:59.226Z,101230.90
2022-10-06T02:38:30.663Z,101232.08
2022-10-06T02:41:00.266Z,101235.17
2022-10-06T02:43:30.106Z,101240.94
2022-10-06T02:46:00.351Z,101244.46
2022-10-06T02:48:29.371Z,101244.69
2022-10-06T02:50:58.296Z,101247.48
2022-10-06T02:53:26.232Z,101251.81
2022-10-06T02:55:57.942Z,101254.30
2022-10-06T02:58:26.091Z,101259.15
2022-10-06T03:00:54.283Z,101261.91
2022-10-06T03:03:22.043Z,101261.66
2022-10-06T03:05:50.350Z,101261.20
2022-10-06T03:08:18.095Z,101263.46
2022-10-06T03:10:46.937Z,101266.71
2022-10-06T03:13:14.661Z,101268.51
2022-10-06T03:15:42.549Z,101267.52
2022-10-06T03:18:10.321Z,101273.02
2022-10-06T03:20:37.931Z,101274.94
2022-10-06T03:23:07.408Z,101277.80
2022-10-06T03:25:38.301Z,101277.02
2022-10-06T03:28:06.404Z,101278.98
2022-10-06T03:30:34.430Z,101281.70
2022-10-06T03:33:02.437Z,101281.13
2022-10-06T03:35:30.413Z,101284.06
2022-10-06T03:37:59.040Z,101282.48
2022-10-06T03:40:27.593Z,101283.70
2022-10-06T03:42:55.626Z,101285.03
2022-10-06T03:45:23.669Z,101291.00
2022-10-06T03:47:51.313Z,101290.44
2022-10-06T03:50:18.951Z,101295.91
2022-10-06T03:52:51.407Z,101302.92
2022-10-06T03:55:20.534Z,101302.85
2022-10-06T03:57:48.224Z,101300.11
2022-10-06T04:00:16.010Z,101300.75
2022-10-06T04:02:44.194Z,101305.30
2022-10-06T04:05:11.942Z,101304.86
2022-10-06T04:07:39.636Z,101309.11
2022-10-06T04:10:07.848Z,101312.36
2022-10-06T04:12:36.291Z,101312.57
2022-10-06T04:15:04.122Z,101313.20
2022-10-06T04:17:31.820Z,101321.89
2022-10-06T04:19:59.528Z,101324.31
2022-10-06T04:22:27.411Z,101321.95
2022-10-06T04:24:55.046Z,101332.14
2022-10-06T04:27:28.977Z,101332.61
2022-10-06T04:30:01.964Z,101335.98
2022-10-06T04:32:30.777Z,101336.05
2022-10-06T04:34:58.428Z,101339.32
2022-10-06T04:37:28.461Z,101339.64
2022-10-06T04:39:56.375Z,101339.48
2022-10-06T04:42:24.688Z,101345.80
2022-10-06T04:44:52.373Z,101344.51
2022-10-06T04:47:20.059Z,101344.61
2022-10-06T04:49:49.254Z,101344.55
2022-10-06T04:52:16.953Z,101339.66
2022-10-06T04:54:44.638Z,101342.96
2022-10-06T04:57:12.930Z,101349.51
2022-10-06T05:00:05.938Z,101351.89
2022-10-06T05:02:37.258Z,101354.38
2022-10-06T05:05:07.985Z,101353.84
2022-10-06T05:07:35.964Z,101360.09
2022-10-06T05:10:03.778Z,101362.05
2022-10-06T05:12:32.424Z,101366.23
2022-10-06T05:15:00.195Z,101366.58
2022-10-06T05:17:27.972Z,101374.05
2022-10-06T05:19:55.696Z,101374.00
2022-10-06T05:22:23.716Z,101375.46
2022-10-06T05:24:53.879Z,101381.80
2022-10-06T05:27:21.728Z,101388.36
2022-10-06T05:29:49.423Z,101390.98
2022-10-06T05:32:17.298Z,101394.19
2022-10-06T05:34:45.151Z,101402.63
2022-10-06T05:37:12.823Z,101405.73
2022-10-06T05:39:40.624Z,101407.05
2022-10-06T05:42:08.329Z,101410.26
2022-10-06T05:44:36.048Z,101409.67
2022-10-06T05:47:08.418Z,101416.73
2022-10-06T05:49:36.365Z,101423.20
2022-10-06T05:52:05.439Z,101423.41
2022-10-06T05:54:35.464Z,101427.50
2022-10-06T05:57:03.160Z,101431.57
2022-10-06T05:59:33.024Z,101437.52
2022-10-06T06:02:01.822Z,101441.30
2022-10-06T06:04:35.045Z,101441.31
2022-10-06T06:07:03.008Z,101447.53
2022-10-06T06:09:30.799Z,101451.94
2022-10-06T06:12:00.793Z,101454.65
2022-10-06T06:14:58.170Z,101462.26
2022-10-06T06:17:33.393Z,101466.50
2022-10-06T06:20:02.938Z,101470.54
2022-10-06T06:22:31.026Z,101473.45
2022-10-06T06:24:59.158Z,101474.14
2022-10-06T06:27:26.921Z,101483.85
2022-10-06T06:29:54.755Z,101485.23
2022-10-06T06:32:22.655Z,101486.92
2022-10-06T06:34:52.860Z,101493.16
2022-10-06T06:37:20.913Z,101498.23
2022-10-06T06:39:49.102Z,101501.83
2022-10-06T06:42:17.459Z,101505.76
2022-10-06T06:44:48.721Z,101514.92
2022-10-06T06:47:25.984Z,101520.14
2022-10-06T06:49:55.092Z,101524.70
2022-10-06T06:52:26.181Z,101530.53
2022-10-06T06:54:54.313Z,101532.45
2022-10-06T06:57:22.935Z,101537.37
2022-10-06T06:59:52.613Z,101540.82
2022-10-06T07:02:20.830Z,101547.45
2022-10-06T07:04:49.458Z,101552.28
2022-10-06T07:07:21.236Z,101561.62
2022-10-06T07:09:49.293Z,101563.83
2022-10-06T07:12:18.955Z,101566.41
2022-10-06T07:15:10.717Z,101571.64
2022-10-06T07:18:00.073Z,101578.13
2022-10-06T07:20:47.806Z,101587.60
2022-10-06T07:23:36.591Z,101588.91
2022-10-06T07:26:07.464Z,101597.64
2022-10-06T07:28:35.394Z,101606.70
2022-10-06T07:31:03.662Z,101607.98
2022-10-06T07:33:33.422Z,101617.04
2022-10-06T07:36:04.508Z,101621.74
2022-10-06T07:38:33.769Z,101627.89
2022-10-06T07:43:53.956Z,101622.61
2022-10-06T07:46:22.375Z,101622.13
2022-10-06T07:49:09.946Z,101624.91
2022-10-06T07:51:37.664Z,101629.58
2022-10-06T07:54:05.569Z,101634.13
2022-10-06T07:56:52.578Z,101636.36
2022-10-06T07:59:20.242Z,101640.39
2022-10-06T08:01:50.179Z,101643.00
2022-10-06T08:04:17.938Z,101651.12
2022-10-06T08:06:47.767Z,101652.45
2022-10-06T08:09:15.773Z,101647.52
2022-10-06T08:11:45.153Z,101663.41
2022-10-06T08:14:15.161Z,101670.52
2022-10-06T08:16:42.818Z,101676.76
2022-10-06T08:19:11.712Z,101675.66
2022-10-06T08:21:40.483Z,101678.77
2022-10-06T08:24:10.909Z,101686.75
2022-10-06T08:26:38.884Z,101692.38
2022-10-06T08:29:06.578Z,101699.41
2022-10-06T08:31:34.324Z,101702.34
2022-10-06T08:34:02.096Z,101715.03
2022-10-06T08:36:32.212Z,101714.80
2022-10-06T08:39:01.307Z,101719.55
2022-10-06T08:41:39.805Z,101728.61
2022-10-06T08:44:18.658Z,101732.19
2022-10-06T08:46:56.134Z,101732.08
2022-10-06T08:49:27.390Z,101734.91
2022-10-06T08:51:57.742Z,101743.59
2022-10-06T08:54:30.046Z,101745.27
2022-10-06T08:57:05.924Z,101747.15
2022-10-06T08:59:35.162Z,101746.86
2022-10-06T09:02:06.913Z,101750.68
2022-10-06T09:04:34.686Z,101756.73
2022-10-06T09:07:16.802Z,101766.64
2022-10-06T09:10:03.421Z,101765.55
2022-10-06T09:12:35.925Z,101763.97
2022-10-06T09:15:22.276Z,101766.25
2022-10-06T09:17:55.344Z,101772.34
2022-10-06T09:20:22.968Z,101775.69
2022-10-06T09:22:51.344Z,101780.70
2022-10-06T09:25:22.861Z,101785.06
2022-10-06T09:27:53.273Z,101787.11
2022-10-06T09:30:20.929Z,101794.22
2022-10-06T09:32:53.806Z,101792.77
2022-10-06T09:35:23.269Z,101796.86
2022-10-06T09:38:08.157Z,101803.63
2022-10-06T09:40:38.768Z,101809.60
2022-10-06T09:43:22.749Z,101809.45
2022-10-06T09:45:51.734Z,101813.30
2022-10-06T09:48:24.972Z,101819.21
2022-10-06T09:51:11.855Z,101825.60
2022-10-06T09:53:39.992Z,101829.17
2022-10-06T09:56:21.518Z,101834.33
2022-10-06T09:58:56.659Z,101841.02
2022-10-06T10:01:28.687Z,101844.92
2022-10-06T10:04:20.590Z,101849.98
2022-10-06T10:06:48.582Z,101849.71
2022-10-06T10:09:21.762Z,101856.42
2022-10-06T10:12:29.916Z,101857.11
2022-10-06T10:14:59.616Z,101864.63
2022-10-06T10:17:44.783Z,101871.12
2022-10-06T10:20:25.065Z,101871.63
2022-10-06T10:22:53.406Z,101873.26
2022-10-06T10:25:26.924Z,101882.02
2022-10-06T10:28:02.093Z,101881.60
2022-10-06T10:30:32.457Z,101885.31
2022-10-06T10:33:00.452Z,101890.08
2022-10-06T10:35:33.987Z,101890.12
2022-10-06T10:38:05.173Z,101893.27
2022-10-06T10:41:02.222Z,101896.40
2022-10-06T10:43:42.395Z,101904.79
2022-10-06T10:46:21.692Z,101908.16
2022-10-06T10:48:52.150Z,101906.60
2022-10-06T10:51:22.595Z,101902.21
2022-10-06T10:53:58.696Z,101900.35
2022-10-06T10:56:27.143Z,101894.85
2022-10-06T10:59:07.309Z,101894.52
2022-10-06T11:01:41.834Z,101897.22
2022-10-06T11:04:11.501Z,101902.05
2022-10-06T11:06:39.240Z,101902.20
2022-10-06T11:09:15.984Z,101911.71
2022-10-06T11:11:45.010Z,101921.31
2022-10-06T11:14:23.770Z,101922.52
2022-10-06T11:17:04.385Z,101920.21
2022-10-06T11:19:42.646Z,101924.84
2022-10-06T11:22:20.915Z,101934.86
2022-10-06T11:24:59.923Z,101938.69
2022-10-06T11:27:54.653Z,101939.42
2022-10-06T11:30:26.602Z,101943.29
2022-10-06T11:33:03.470Z,101945.14
2022-10-06T11:35:35.395Z,101950.55
2022-10-06T11:38:26.145Z,101949.23
2022-10-06T11:40:53.805Z,101954.36
2022-10-06T11:43:34.053Z,101958.02
2022-10-06T11:46:04.943Z,101957.54
2022-10-06T11:48:33.208Z,101960.02
2022-10-06T11:51:20.888Z,101962.18
2022-10-06T11:53:48.653Z,101967.70
2022-10-06T11:56:19.042Z,101964.43
2022-10-06T11:58:55.699Z,101968.02
2022-10-06T12:01:32.733Z,101973.33
2022-10-06T12:04:04.001Z,101973.08
2022-10-06T12:06:46.992Z,101975.34
2022-10-06T12:09:23.830Z,101981.79
2022-10-06T12:11:52.639Z,101979.80
2022-10-06T12:17:26.237Z,101981.64
2022-10-06T12:20:12.972Z,101986.90
2022-10-06T12:22:40.567Z,101988.65
2022-10-06T12:25:11.268Z,101987.44
2022-10-06T12:27:54.595Z,101987.70
2022-10-06T12:30:30.849Z,101989.52
2022-10-06T12:33:00.308Z,101987.85
2022-10-06T12:35:30.316Z,101989.88
2022-10-06T12:38:21.341Z,101993.45
2022-10-06T12:40:50.126Z,101993.39
2022-10-06T12:43:17.844Z,102003.72
2022-10-06T12:46:01.267Z,102000.91
2022-10-06T12:48:28.923Z,101997.48
2022-10-06T12:51:25.954Z,102003.34
2022-10-06T12:54:06.057Z,102007.34
2022-10-06T12:56:35.092Z,102009.88
2022-10-06T12:59:21.551Z,102012.86
2022-10-06T13:01:50.713Z,102013.11
2022-10-06T13:04:34.743Z,102008.26
2022-10-06T13:07:22.030Z,102008.23
2022-10-06T13:09:51.781Z,102011.27
2022-10-06T13:12:36.806Z,102012.66
2022-10-06T13:15:11.221Z,102015.15
2022-10-06T13:17:52.958Z,102017.48
2022-10-06T13:20:23.095Z,102018.24
2022-10-06T13:23:17.104Z,102028.50
2022-10-06T13:25:47.524Z,102032.52
2022-10-06T13:28:22.819Z,102030.45
2022-10-06T13:30:51.745Z,102029.92
2022-10-06T13:33:19.494Z,102039.80
2022-10-06T13:35:49.756Z,102045.24
2022-10-06T13:38:17.526Z,102051.86
2022-10-06T13:40:46.200Z,102052.70
2022-10-06T13:43:17.175Z,102048.02
2022-10-06T13:45:46.367Z,102044.75
2022-10-06T13:48:16.299Z,102047.02
2022-10-06T13:50:49.152Z,102048.39
2022-10-06T13:53:25.755Z,102054.35
2022-10-06T13:55:54.044Z,102058.40
2022-10-06T13:58:24.874Z,102058.63
2022-10-06T14:00:52.816Z,102059.84
2022-10-06T14:03:25.275Z,102063.08
2022-10-06T14:06:05.054Z,102067.16
2022-10-06T14:08:33.293Z,102067.98
2022-10-06T14:11:02.251Z,102069.46
2022-10-06T14:13:32.370Z,102071.98
2022-10-06T14:16:02.146Z,102069.82
2022-10-06T14:18:35.880Z,102070.25
2022-10-06T14:21:26.834Z,102065.91
2022-10-06T14:23:55.110Z,102063.77
2022-10-06T14:26:27.545Z,102074.42
2022-10-06T14:28:55.964Z,102071.64
2022-10-06T14:31:25.362Z,102076.54
2022-10-06T14:33:53.939Z,102077.38
2022-10-06T14:36:23.511Z,102082.52
2022-10-06T14:38:51.755Z,102083.79
2022-10-06T14:41:20.127Z,102086.05
2022-10-06T14:43:48.102Z,102081.99
2022-10-06T14:46:16.056Z,102087.92
2022-10-06T14:48:43.776Z,102090.44
2022-10-06T14:51:11.433Z,102092.77
2022-10-06T14:53:39.607Z,102095.70
2022-10-06T14:56:10.727Z,102093.43
2022-10-06T14:58:39.739Z,102092.09
2022-10-06T15:01:08.174Z,102096.44
2022-10-06T15:03:36.323Z,102100.34
2022-10-06T15:06:27.108Z,102097.95
2022-10-06T15:08:58.659Z,102101.86
2022-10-06T15:11:27.699Z,102102.19
2022-10-06T15:13:57.344Z,102107.11
2022-10-06T15:16:25.929Z,102107.39
2022-10-06T15:18:53.674Z,102111.55
2022-10-06T15:21:23.415Z,102111.08
2022-10-06T15:23:58.292Z,102113.58
2022-10-06T15:26:45.467Z,102117.98
2022-10-06T15:29:13.549Z,102122.86
2022-10-06T15:31:45.750Z,102127.01
2022-10-06T15:34:14.431Z,102126.73
2022-10-06T15:36:42.755Z,102128.86
2022-10-06T15:39:11.986Z,102132.14
2022-10-06T15:41:40.498Z,102132.48
2022-10-06T15:44:09.102Z,102132.08
2022-10-06T15:46:39.614Z,102135.23
2022-10-06T15:49:07.447Z,102139.26
2022-10-06T15:51:43.063Z,102144.88
2022-10-06T15:54:14.855Z,102148.64
2022-10-06T15:56:42.582Z,102152.55
2022-10-06T15:59:11.454Z,102154.05
2022-10-06T16:01:42.296Z,102155.30
2022-10-06T16:04:21.554Z,102157.73
2022-10-06T16:06:50.413Z,102159.25
2022-10-06T16:09:21.068Z,102161.30
2022-10-06T16:11:48.810Z,102162.09
2022-10-06T16:14:16.668Z,102165.03
2022-10-06T16:16:45.001Z,102166.40
2022-10-06T16:19:13.082Z,102170.97
2022-10-06T16:21:41.096Z,102172.03
2022-10-06T16:24:09.381Z,102178.84
2022-10-06T16:26:37.160Z,102183.39
2022-10-06T16:29:05.441Z,102186.70
2022-10-06T16:31:33.216Z,102192.73
2022-10-06T16:34:01.209Z,102193.63
2022-10-06T16:36:29.053Z,102192.91
2022-10-06T16:38:57.310Z,102199.99
2022-10-06T16:41:25.188Z,102204.30
2022-10-06T16:43:53.607Z,102203.30
2022-10-06T16:46:25.532Z,102207.83
2022-10-06T16:48:54.748Z,102210.66
2022-10-06T16:51:23.480Z,102217.15
2022-10-06T16:53:52.386Z,102222.12
2022-10-06T16:56:24.912Z,102223.95
2022-10-06T16:58:54.106Z,102228.70
2022-10-06T17:01:23.186Z,102234.21
2022-10-06T17:04:07.749Z,102239.30
2022-10-06T17:06:39.241Z,102245.23
2022-10-06T17:09:08.390Z,102246.90
2022-10-06T17:11:36.189Z,102248.41
2022-10-06T17:14:04.604Z,102249.98
2022-10-06T17:16:34.461Z,102253.29
2022-10-06T17:19:02.839Z,102250.95
2022-10-06T17:21:49.604Z,102248.66
2022-10-06T17:24:18.687Z,102254.27
2022-10-06T17:26:48.510Z,102255.23
2022-10-06T17:29:21.505Z,102252.50
2022-10-06T17:31:51.016Z,102250.23
2022-10-06T17:34:21.948Z,102252.22
2022-10-06T17:36:51.901Z,102256.36
2022-10-06T17:39:21.541Z,102251.89
2022-10-06T17:41:50.510Z,102255.65
2022-10-06T17:44:23.289Z,102257.30
2022-10-06T17:46:52.547Z,102256.25
2022-10-06T17:49:21.291Z,102256.15
2022-10-06T17:51:50.265Z,102256.55
2022-10-06T17:54:20.263Z,102254.67
2022-10-06T17:56:48.959Z,102256.88
2022-10-06T17:59:24.611Z,102257.10
2022-10-06T18:01:56.300Z,102259.30
2022-10-06T18:04:24.757Z,102260.81
2022-10-06T18:06:54.089Z,102264.69
2022-10-06T18:09:22.365Z,102270.31
2022-10-06T18:11:55.564Z,102270.99
2022-10-06T18:14:28.116Z,102269.98
2022-10-06T18:16:58.431Z,102270.55
2022-10-06T18:19:30.274Z,102271.77
2022-10-06T18:22:00.676Z,102270.73
2022-10-06T18:24:29.688Z,102272.16
2022-10-06T18:26:58.560Z,102269.77
2022-10-06T18:29:29.158Z,102275.46
2022-10-06T18:32:05.127Z,102280.20
2022-10-06T18:37:32.620Z,102286.36
2022-10-06T18:40:02.514Z,102288.92
2022-10-06T18:42:30.344Z,102290.06
2022-10-06T18:45:17.044Z,102292.04
2022-10-06T18:48:03.755Z,102295.29
2022-10-06T18:50:32.402Z,102295.46
2022-10-06T18:53:00.199Z,102298.58
2022-10-06T18:55:29.899Z,102297.42
2022-10-06T18:57:57.879Z,102302.70
2022-10-06T19:00:26.152Z,102302.52
2022-10-06T19:02:55.626Z,102305.04
2022-10-06T19:05:23.705Z,102309.98
2022-10-06T19:07:54.364Z,102312.08
2022-10-06T19:10:22.424Z,102310.30
2022-10-06T19:12:50.181Z,102308.31
2022-10-06T19:15:20.991Z,102308.94
2022-10-06T19:17:50.129Z,102309.11
2022-10-06T19:20:18.811Z,102306.73
2022-10-06T19:22:47.847Z,102312.18
2022-10-06T19:25:18.899Z,102309.60
2022-10-06T19:27:48.401Z,102317.81
2022-10-06T19:30:16.588Z,102326.98
2022-10-06T19:32:44.415Z,102328.65
2022-10-06T19:35:12.122Z,102325.38
2022-10-06T19:37:40.677Z,102324.80
2022-10-06T19:40:11.281Z,102322.63
2022-10-06T19:42:48.424Z,102323.29
2022-10-06T19:45:17.292Z,102328.41
2022-10-06T19:47:46.226Z,102331.74
2022-10-06T19:50:15.349Z,102334.54
2022-10-06T19:52:43.033Z,102337.98
2022-10-06T19:55:10.875Z,102337.64
2022-10-06T19:57:38.495Z,102336.09
2022-10-06T20:00:07.001Z,102340.04
2022-10-06T20:02:43.403Z,102339.64
2022-10-06T20:05:13.115Z,102338.70
2022-10-06T20:07:41.689Z,102341.73
2022-10-06T20:10:11.901Z,102340.36
2022-10-06T20:12:41.629Z,102346.83
2022-10-06T20:15:10.284Z,102346.50
2022-10-06T20:17:37.958Z,102351.95
2022-10-06T20:20:05.882Z,102349.23
2022-10-06T20:22:33.601Z,102349.39
2022-10-06T20:25:02.613Z,102351.15
2022-10-06T20:27:30.413Z,102351.61
2022-10-06T20:29:58.416Z,102352.46
2022-10-06T20:32:26.290Z,102350.88
2022-10-06T20:34:53.982Z,102351.67
2022-10-06T20:37:21.599Z,102349.48
2022-10-06T20:40:08.219Z,102357.32
2022-10-06T20:42:35.881Z,102356.89
2022-10-06T20:45:03.606Z,102360.66
2022-10-06T20:47:31.241Z,102358.43
2022-10-06T20:49:58.880Z,102356.81
2022-10-06T20:52:26.516Z,102355.84
2022-10-06T20:54:54.238Z,102358.55
2022-10-06T20:57:21.894Z,102364.37
2022-10-06T20:59:49.626Z,102364.13
2022-10-06T21:02:17.457Z,102364.45
2022-10-06T21:04:45.264Z,102364.11
2022-10-06T21:07:13.122Z,102361.08
2022-10-06T21:09:40.855Z,102361.11
2022-10-06T21:12:08.682Z,102362.08
2022-10-06T21:14:37.708Z,102367.09
2022-10-06T21:17:06.010Z,102369.75
2022-10-06T21:19:38.120Z,102368.85
2022-10-06T21:22:06.243Z,102364.86
2022-10-06T21:24:34.122Z,102366.55
2022-10-06T21:27:02.205Z,102369.73
2022-10-06T21:29:29.856Z,102364.75
2022-10-06T21:31:57.653Z,102368.59
2022-10-06T21:34:25.472Z,102366.39
2022-10-06T21:36:53.179Z,102366.61
2022-10-06T21:39:20.945Z,102362.73
2022-10-06T21:41:48.589Z,102362.88
2022-10-06T21:44:17.757Z,102364.09
2022-10-06T21:46:46.664Z,102363.16
2022-10-06T21:49:16.161Z,102363.82
2022-10-06T21:51:46.417Z,102362.70
2022-10-06T21:54:14.545Z,102361.41
2022-10-06T21:56:42.795Z,102364.69
2022-10-06T21:59:11.134Z,102367.64
2022-10-06T22:01:43.018Z,102366.71
2022-10-06T22:04:13.112Z,102366.66
2022-10-06T22:06:43.497Z,102364.37
2022-10-06T22:09:15.362Z,102366.23
2022-10-06T22:11:43.119Z,102365.66
2022-10-06T22:14:11.943Z,102364.64
2022-10-06T22:16:40.758Z,102368.48
2022-10-06T22:19:10.158Z,102363.20
2022-10-06T22:21:39.441Z,102371.45
2022-10-06T22:24:08.796Z,102369.16
2022-10-06T22:26:37.679Z,102362.98
2022-10-06T22:29:07.081Z,102359.98
2022-10-06T22:31:38.159Z,102356.08
2022-10-06T22:34:06.232Z,102353.69
2022-10-06T22:36:34.237Z,102354.67
2022-10-06T22:39:02.104Z,102356.25
2022-10-06T22:41:30.042Z,102359.29
2022-10-06T22:43:58.634Z,102359.20
2022-10-06T22:46:27.467Z,102363.38
2022-10-06T22:48:55.286Z,102362.14
2022-10-06T22:51:23.477Z,102366.58
2022-10-06T22:53:57.237Z,102367.92
2022-10-06T22:56:27.547Z,102365.32
2022-10-06T22:58:55.601Z,102367.52
2022-10-06T23:01:23.284Z,102365.27
2022-10-06T23:03:53.745Z,102365.16
2022-10-06T23:06:21.484Z,102365.05
2022-10-06T23:08:49.338Z,102365.48
2022-10-06T23:11:18.534Z,102363.69
2022-10-06T23:13:46.778Z,102359.24
2022-10-06T23:16:15.953Z,102360.45
2022-10-06T23:18:44.518Z,102368.48
2022-10-06T23:21:19.431Z,102368.45
2022-10-06T23:23:52.074Z,102369.64
2022-10-06T23:26:20.915Z,102367.81
2022-10-06T23:28:53.031Z,102361.71
2022-10-06T23:31:20.943Z,102362.34
2022-10-06T23:33:49.367Z,102363.94
2022-10-06T23:36:18.068Z,102360.16
2022-10-06T23:38:46.912Z,102357.60
2022-10-06T23:41:14.719Z,102362.29
2022-10-06T23:43:42.776Z,102359.69
2022-10-06T23:46:10.749Z,102360.73
2022-10-06T23:48:38.745Z,102365.50
2022-10-06T23:51:08.236Z,102368.73
2022-10-06T23:53:36.320Z,102367.49
2022-10-06T23:56:04.760Z,102368.27
2022-10-06T23:58:32.765Z,102368.63
